Time;durP1;ratioP1;P1;durP2;ratioP2;P2;SDS_P1;SDS_P2;PMS_P1;PMS_P2;Temp;Humidity;BMP_temperature;BMP_pressure;BME280_temperature;BME280_humidity;BME280_pressure;Samples;Min_cycle;Max_cycle;Signal;HPM_P1;HPM_P2
2022/11/04 00:01:05;;;;;;;3.70;3.40;;;;;;;;;;5070707;28;20668;-60
2022/11/04 00:03:30;;;;;;;3.90;3.60;;;;;;;;;;5070846;28;20644;-60
2022/11/04 00:05:55;;;;;;;3.73;3.53;;;;;;;;;;5070763;28;20645;-60
2022/11/04 00:08:23;;;;;;;3.73;3.43;;;;;;;;;;5069589;28;20171;-60
2022/11/04 00:13:36;;;;;;;3.80;3.50;;;;;;;;;;5070811;28;20557;-60
2022/11/04 00:18:45;;;;;;;3.57;3.37;;;;;;;;;;5054691;28;20275;-60
2022/11/04 00:29:21;;;;;;;4.53;3.57;;;;;;;;;;5068954;28;20605;-60
2022/11/04 00:34:30;;;;;;;4.43;3.27;;;;;;;;;;5050352;28;20171;-59
2022/11/04 00:36:55;;;;;;;3.87;3.53;;;;;;;;;;5057406;28;20594;-60
2022/11/04 00:39:21;;;;;;;4.23;3.83;;;;;;;;;;5070570;28;20199;-60
2022/11/04 00:41:46;;;;;;;4.37;3.67;;;;;;;;;;5069282;28;20817;-59
2022/11/04 00:44:11;;;;;;;5.55;3.67;;;;;;;;;;5070279;28;20203;-59
2022/11/04 00:46:36;;;;;;;3.47;3.17;;;;;;;;;;5070248;28;20223;-60
2022/11/04 00:49:01;;;;;;;3.80;3.47;;;;;;;;;;5063844;28;20226;-60
2022/11/04 00:51:27;;;;;;;3.90;3.60;;;;;;;;;;5054679;28;20558;-61
2022/11/04 00:53:52;;;;;;;3.70;3.40;;;;;;;;;;5062538;28;20544;-60
2022/11/04 00:56:17;;;;;;;3.20;3.00;;;;;;;;;;5060489;28;20211;-61
2022/11/04 00:58:42;;;;;;;3.80;3.43;;;;;;;;;;5062359;28;20605;-61
2022/11/04 01:01:08;;;;;;;4.53;4.13;;;;;;;;;;5060403;28;20176;-60
2022/11/04 01:03:33;;;;;;;4.43;4.03;;;;;;;;;;5070087;28;20171;-61
2022/11/04 01:05:59;;;;;;;4.27;3.90;;;;;;;;;;5064318;28;20666;-61
2022/11/04 01:08:24;;;;;;;3.92;3.58;;;;;;;;;;5050145;28;20168;-61
2022/11/04 01:10:49;;;;;;;3.70;3.37;;;;;;;;;;5049712;28;20196;-60
2022/11/04 01:13:14;;;;;;;4.80;3.25;;;;;;;;;;5065213;28;20208;-61
2022/11/04 01:15:39;;;;;;;4.10;3.80;;;;;;;;;;5070308;28;20163;-61
2022/11/04 01:18:05;;;;;;;3.67;3.38;;;;;;;;;;5069942;28;20175;-61
2022/11/04 01:20:31;;;;;;;4.10;3.77;;;;;;;;;;5070191;28;20171;-61
2022/11/04 01:22:56;;;;;;;3.90;3.60;;;;;;;;;;5064181;28;20188;-60
2022/11/04 01:25:21;;;;;;;3.90;3.60;;;;;;;;;;5050021;28;20264;-62
2022/11/04 01:27:46;;;;;;;3.97;3.53;;;;;;;;;;5054995;28;20250;-62
2022/11/04 01:30:11;;;;;;;4.00;3.70;;;;;;;;;;5069728;28;20507;-62
2022/11/04 01:32:37;;;;;;;3.60;3.30;;;;;;;;;;5070019;28;20253;-61
2022/11/04 01:35:02;;;;;;;4.07;3.77;;;;;;;;;;5073492;28;20263;-61
2022/11/04 01:37:27;;;;;;;3.70;3.47;;;;;;;;;;5073819;28;20178;-62
2022/11/04 01:39:52;;;;;;;3.90;3.60;;;;;;;;;;5068844;28;20186;-62
2022/11/04 01:42:19;;;;;;;5.90;3.47;;;;;;;;;;5053262;28;20179;-61
2022/11/04 01:44:46;;;;;;;3.33;3.13;;;;;;;;;;5058922;28;20642;-61
2022/11/04 01:47:41;;;;;;;3.80;3.50;;;;;;;;;;5059863;28;20823;-61
2022/11/04 01:50:06;;;;;;;3.87;3.33;;;;;;;;;;5046869;28;20598;-61
2022/11/04 01:52:34;;;;;;;4.47;3.97;;;;;;;;;;5065877;28;20609;-61
2022/11/04 01:55:01;;;;;;;3.90;3.60;;;;;;;;;;5068726;28;20649;-61
2022/11/04 01:57:34;;;;;;;3.37;3.07;;;;;;;;;;5070371;28;20701;-61
2022/11/04 02:00:00;;;;;;;4.00;3.33;;;;;;;;;;5067558;28;20701;-61
2022/11/04 02:02:26;;;;;;;3.60;3.40;;;;;;;;;;5063684;28;20650;-60
2022/11/04 02:04:51;;;;;;;3.77;3.47;;;;;;;;;;5060689;28;20617;-62
2022/11/04 02:07:16;;;;;;;4.27;3.97;;;;;;;;;;5069181;28;20245;-61
2022/11/04 02:09:43;;;;;;;3.67;3.37;;;;;;;;;;5058992;28;20186;-61
2022/11/04 02:14:52;;;;;;;3.90;3.60;;;;;;;;;;5071964;28;20695;-60
2022/11/04 02:17:18;;;;;;;3.60;3.30;;;;;;;;;;5066530;28;21136;-60
2022/11/04 02:19:57;;;;;;;3.47;3.27;;;;;;;;;;5068942;28;20628;-59
2022/11/04 02:22:22;;;;;;;3.63;3.33;;;;;;;;;;5066367;28;20185;-60
2022/11/04 02:24:56;;;;;;;3.97;3.67;;;;;;;;;;5067379;28;20609;-62
2022/11/04 02:27:31;;;;;;;3.47;3.17;;;;;;;;;;5070650;28;20731;-64
2022/11/04 02:30:16;;;;;;;3.47;3.27;;;;;;;;;;5062583;28;20629;-61
2022/11/04 02:32:53;;;;;;;4.50;3.63;;;;;;;;;;5057895;28;20615;-61
2022/11/04 02:35:22;;;;;;;4.47;4.07;;;;;;;;;;5055467;28;20602;-62
2022/11/04 02:37:55;;;;;;;3.30;3.07;;;;;;;;;;5066468;28;20614;-62
2022/11/04 02:40:29;;;;;;;3.70;3.47;;;;;;;;;;5058180;28;20620;-61
2022/11/04 02:42:54;;;;;;;4.47;4.07;;;;;;;;;;5061716;28;20699;-61
2022/11/04 02:45:21;;;;;;;3.92;3.63;;;;;;;;;;5067390;28;20688;-61
2022/11/04 02:47:56;;;;;;;3.87;3.57;;;;;;;;;;5056614;28;20179;-60
2022/11/04 02:50:30;;;;;;;3.60;3.40;;;;;;;;;;5055114;28;20689;-61
2022/11/04 02:52:58;;;;;;;4.10;3.80;;;;;;;;;;5058038;28;20950;-62
2022/11/04 02:55:37;;;;;;;4.40;4.10;;;;;;;;;;5069226;28;20700;-62
2022/11/04 02:58:03;;;;;;;3.90;3.70;;;;;;;;;;5065095;28;20622;-62
2022/11/04 03:00:29;;;;;;;3.97;3.70;;;;;;;;;;5055897;28;20621;-62
2022/11/04 03:03:04;;;;;;;5.30;4.30;;;;;;;;;;5067126;28;20716;-59
2022/11/04 03:05:31;;;;;;;4.47;4.17;;;;;;;;;;5067738;28;20707;-61
2022/11/04 03:07:59;;;;;;;3.70;3.50;;;;;;;;;;5068266;28;20612;-61
2022/11/04 03:10:29;;;;;;;4.60;4.30;;;;;;;;;;5068629;28;21033;-61
2022/11/04 03:12:58;;;;;;;4.60;4.20;;;;;;;;;;5069527;28;20644;-59
2022/11/04 03:15:25;;;;;;;4.23;4.03;;;;;;;;;;5065082;28;20739;-60
2022/11/04 03:17:59;;;;;;;4.70;4.30;;;;;;;;;;5057803;28;20615;-61
2022/11/04 03:20:26;;;;;;;4.40;4.10;;;;;;;;;;5064388;28;20666;-60
2022/11/04 03:22:54;;;;;;;4.73;4.17;;;;;;;;;;5061984;28;20606;-60
2022/11/04 03:25:21;;;;;;;4.90;4.50;;;;;;;;;;5067441;28;20647;-61
2022/11/04 03:27:49;;;;;;;4.63;4.33;;;;;;;;;;5067998;28;20617;-60
2022/11/04 03:30:19;;;;;;;4.13;3.80;;;;;;;;;;5066515;28;21227;-62
2022/11/04 03:32:49;;;;;;;4.17;3.80;;;;;;;;;;5055240;28;20620;-61
2022/11/04 03:35:15;;;;;;;4.77;4.47;;;;;;;;;;5057608;28;20744;-61
2022/11/04 03:37:40;;;;;;;4.83;4.43;;;;;;;;;;5057468;28;20699;-61
2022/11/04 03:40:06;;;;;;;4.93;4.53;;;;;;;;;;5065666;28;20179;-61
2022/11/04 03:42:33;;;;;;;4.93;4.53;;;;;;;;;;5059977;28;20188;-60
2022/11/04 03:44:58;;;;;;;4.50;4.10;;;;;;;;;;5067927;28;20243;-60
2022/11/04 03:47:28;;;;;;;4.40;4.10;;;;;;;;;;5059604;28;20645;-60
2022/11/04 03:50:16;;;;;;;4.60;4.20;;;;;;;;;;5069602;28;20258;-61
2022/11/04 03:52:41;;;;;;;4.50;4.20;;;;;;;;;;5053453;28;20633;-60
2022/11/04 03:55:07;;;;;;;4.87;4.47;;;;;;;;;;5063179;28;21197;-60
2022/11/04 03:57:43;;;;;;;4.33;4.03;;;;;;;;;;5066916;28;20188;-60
2022/11/04 04:00:09;;;;;;;4.80;4.40;;;;;;;;;;5067111;28;20624;-61
2022/11/04 04:02:40;;;;;;;4.93;4.63;;;;;;;;;;5070405;28;21171;-61
2022/11/04 04:05:10;;;;;;;4.80;4.50;;;;;;;;;;5058180;28;20590;-60
2022/11/04 04:07:40;;;;;;;4.70;4.40;;;;;;;;;;5052768;28;20574;-61
2022/11/04 04:10:37;;;;;;;4.83;4.47;;;;;;;;;;5069787;28;21217;-60
2022/11/04 04:12:57;;;;;;;4.93;4.53;;;;;;;;;;5064852;28;20629;-61
2022/11/04 04:15:26;;;;;;;4.97;4.67;;;;;;;;;;5050506;28;20578;-61
2022/11/04 04:17:54;;;;;;;5.07;4.67;;;;;;;;;;5062631;28;21006;-61
2022/11/04 04:20:21;;;;;;;4.60;4.30;;;;;;;;;;5063798;28;20650;-61
2022/11/04 04:28:35;;;;;;;4.87;4.40;;;;;;;;;;5060712;28;20717;-63
2022/11/04 04:31:01;;;;;;;5.47;5.10;;;;;;;;;;5065446;28;20687;-61
2022/11/04 04:33:26;;;;;;;4.93;4.63;;;;;;;;;;5070258;28;20675;-61
2022/11/04 04:35:55;;;;;;;5.30;4.57;;;;;;;;;;5070368;28;20263;-60
2022/11/04 04:46:42;;;;;;;5.73;5.30;;;;;;;;;;5069086;28;20648;-60
2022/11/04 04:49:08;;;;;;;5.33;4.97;;;;;;;;;;5050044;28;20570;-60
2022/11/04 04:51:34;;;;;;;5.57;5.10;;;;;;;;;;5061025;28;20720;-60
2022/11/04 04:54:00;;;;;;;5.43;5.07;;;;;;;;;;5070145;28;21146;-60
2022/11/04 04:56:25;;;;;;;5.20;4.90;;;;;;;;;;5069979;28;20566;-60
2022/11/04 04:58:50;;;;;;;5.60;5.20;;;;;;;;;;5070237;28;20270;-60
2022/11/04 05:01:15;;;;;;;6.03;5.20;;;;;;;;;;5071906;28;20187;-62
2022/11/04 05:03:40;;;;;;;5.50;4.60;;;;;;;;;;5069717;28;20264;-60
2022/11/04 05:06:05;;;;;;;5.60;5.20;;;;;;;;;;5081081;28;20198;-60
2022/11/04 05:08:31;;;;;;;5.80;5.10;;;;;;;;;;5060982;28;20183;-62
2022/11/04 05:10:57;;;;;;;5.70;5.30;;;;;;;;;;5063422;28;20224;-61
2022/11/04 05:13:25;;;;;;;5.70;5.30;;;;;;;;;;5066239;28;20196;-62
2022/11/04 05:15:51;;;;;;;5.63;5.23;;;;;;;;;;5065355;28;20610;-61
2022/11/04 05:18:16;;;;;;;5.63;5.17;;;;;;;;;;5071033;28;21026;-61
2022/11/04 05:20:41;;;;;;;5.63;5.10;;;;;;;;;;5062005;28;20599;-61
2022/11/04 05:23:07;;;;;;;5.37;5.07;;;;;;;;;;5072080;28;20345;-60
2022/11/04 05:25:32;;;;;;;4.80;4.60;;;;;;;;;;5063348;28;20215;-61
2022/11/04 05:28:00;;;;;;;6.13;5.53;;;;;;;;;;5064399;28;20262;-61
2022/11/04 05:30:26;;;;;;;6.33;5.80;;;;;;;;;;5068440;28;20190;-62
2022/11/04 05:32:51;;;;;;;9.20;6.33;;;;;;;;;;5064162;28;20613;-62
2022/11/04 05:35:16;;;;;;;9.00;6.20;;;;;;;;;;5059367;28;20179;-66
2022/11/04 05:37:41;;;;;;;30.35;8.75;;;;;;;;;;5057027;28;20225;-61
2022/11/04 05:40:07;;;;;;;21.10;9.80;;;;;;;;;;5059065;28;20232;-61
2022/11/04 05:42:32;;;;;;;21.90;11.10;;;;;;;;;;5066603;28;20285;-62
2022/11/04 05:44:57;;;;;;;21.77;10.97;;;;;;;;;;5069624;28;20191;-63
2022/11/04 05:47:22;;;;;;;25.73;12.60;;;;;;;;;;5051842;28;20266;-61
2022/11/04 05:49:47;;;;;;;27.03;13.10;;;;;;;;;;5059438;28;20658;-64
2022/11/04 05:52:13;;;;;;;37.67;14.47;;;;;;;;;;5055449;28;20188;-64
2022/11/04 05:54:38;;;;;;;40.03;13.17;;;;;;;;;;5059220;28;20168;-74
2022/11/04 05:57:03;;;;;;;36.23;13.47;;;;;;;;;;5066598;28;20190;-67
2022/11/04 05:59:28;;;;;;;46.80;14.37;;;;;;;;;;5068580;28;20194;-59
2022/11/04 06:01:53;;;;;;;36.13;12.43;;;;;;;;;;5066705;28;20218;-61
2022/11/04 06:04:19;;;;;;;33.83;12.07;;;;;;;;;;5069015;28;20227;-59
2022/11/04 06:06:44;;;;;;;26.37;12.43;;;;;;;;;;5066854;28;20211;-58
2022/11/04 06:09:09;;;;;;;23.10;12.80;;;;;;;;;;5065311;28;20172;-59
2022/11/04 06:11:35;;;;;;;23.23;12.37;;;;;;;;;;5068507;28;20551;-59
2022/11/04 06:14:01;;;;;;;33.13;11.93;;;;;;;;;;5057443;28;20279;-60
2022/11/04 06:16:26;;;;;;;28.67;11.20;;;;;;;;;;5063811;28;21025;-60
2022/11/04 06:18:52;;;;;;;24.27;10.33;;;;;;;;;;5063468;28;20183;-59
2022/11/04 06:21:23;;;;;;;25.70;11.10;;;;;;;;;;5066491;28;20175;-60
2022/11/04 06:23:49;;;;;;;17.58;9.30;;;;;;;;;;5065347;28;20738;-59
2022/11/04 06:26:14;;;;;;;19.73;11.10;;;;;;;;;;5071674;28;20206;-60
2022/11/04 06:28:39;;;;;;;20.03;11.17;;;;;;;;;;5061641;28;20192;-60
2022/11/04 06:31:05;;;;;;;22.43;11.67;;;;;;;;;;5066595;28;20180;-60
2022/11/04 06:33:31;;;;;;;24.83;11.50;;;;;;;;;;5066704;28;20270;-59
2022/11/04 06:35:57;;;;;;;15.30;10.43;;;;;;;;;;5064463;28;20721;-59
2022/11/04 06:38:22;;;;;;;23.43;10.07;;;;;;;;;;5051886;28;20669;-61
2022/11/04 06:40:47;;;;;;;18.87;11.60;;;;;;;;;;5053353;28;20713;-60
2022/11/04 06:43:13;;;;;;;23.88;11.65;;;;;;;;;;5052547;28;20184;-60
2022/11/04 06:45:38;;;;;;;17.47;11.80;;;;;;;;;;5071918;28;20712;-61
2022/11/04 06:48:03;;;;;;;20.50;10.60;;;;;;;;;;5073138;28;20174;-60
2022/11/04 06:50:28;;;;;;;20.13;11.67;;;;;;;;;;5072783;28;20712;-60
2022/11/04 06:52:54;;;;;;;17.67;11.10;;;;;;;;;;5072788;28;20180;-59
2022/11/04 06:55:19;;;;;;;21.20;10.80;;;;;;;;;;5072407;28;20178;-60
2022/11/04 06:57:44;;;;;;;22.00;11.27;;;;;;;;;;5072630;28;20167;-60
2022/11/04 07:00:09;;;;;;;20.08;11.00;;;;;;;;;;5071416;28;20244;-60
2022/11/04 07:02:36;;;;;;;18.47;11.30;;;;;;;;;;5071800;28;20168;-60
2022/11/04 07:05:01;;;;;;;16.40;10.50;;;;;;;;;;5072002;28;20186;-59
2022/11/04 07:07:27;;;;;;;14.30;10.17;;;;;;;;;;5071699;28;20613;-59
2022/11/04 07:09:53;;;;;;;18.60;10.40;;;;;;;;;;5072371;28;20266;-59
2022/11/04 07:12:18;;;;;;;12.83;10.03;;;;;;;;;;5071675;28;20704;-59
2022/11/04 07:14:43;;;;;;;19.03;10.30;;;;;;;;;;5072035;28;20186;-60
2022/11/04 07:17:08;;;;;;;17.77;9.83;;;;;;;;;;5071857;28;20228;-59
2022/11/04 07:19:33;;;;;;;16.73;10.10;;;;;;;;;;5071987;28;20182;-60
2022/11/04 07:21:59;;;;;;;12.93;9.20;;;;;;;;;;5072194;28;20175;-60
2022/11/04 07:24:24;;;;;;;14.60;9.70;;;;;;;;;;5072177;28;20584;-59
2022/11/04 07:26:49;;;;;;;13.73;10.00;;;;;;;;;;5070272;28;20202;-60
2022/11/04 07:29:14;;;;;;;16.55;8.77;;;;;;;;;;5071698;28;20171;-60
2022/11/04 07:31:39;;;;;;;14.20;9.60;;;;;;;;;;5071493;28;20171;-59
2022/11/04 07:34:05;;;;;;;16.07;9.33;;;;;;;;;;5071521;28;20190;-60
2022/11/04 07:36:30;;;;;;;18.00;9.60;;;;;;;;;;5071658;28;20829;-59
2022/11/04 07:38:55;;;;;;;13.13;8.80;;;;;;;;;;5071741;28;20182;-59
2022/11/04 07:41:21;;;;;;;11.55;9.35;;;;;;;;;;5071727;28;20182;-59
2022/11/04 07:43:50;;;;;;;14.70;8.90;;;;;;;;;;5070120;28;20188;-60
2022/11/04 07:46:15;;;;;;;11.00;8.73;;;;;;;;;;5071558;28;20226;-59
2022/11/04 07:48:40;;;;;;;10.80;8.37;;;;;;;;;;5064076;28;20704;-60
2022/11/04 07:51:07;;;;;;;11.33;9.13;;;;;;;;;;5071420;28;20175;-62
2022/11/04 07:53:32;;;;;;;10.70;8.27;;;;;;;;;;5071010;28;20240;-61
2022/11/04 07:55:57;;;;;;;10.13;8.30;;;;;;;;;;5071487;28;20562;-61
2022/11/04 07:58:23;;;;;;;10.47;8.23;;;;;;;;;;5071489;28;20224;-61
2022/11/04 08:00:48;;;;;;;10.33;8.80;;;;;;;;;;5071328;28;20179;-60
2022/11/04 08:03:13;;;;;;;13.27;9.53;;;;;;;;;;5070362;28;20182;-58
2022/11/04 08:05:38;;;;;;;11.13;8.87;;;;;;;;;;5070991;28;20210;-61
2022/11/04 08:08:04;;;;;;;11.27;9.00;;;;;;;;;;5071456;28;20170;-60
2022/11/04 08:10:29;;;;;;;11.07;8.67;;;;;;;;;;5071061;28;20802;-59
2022/11/04 08:12:54;;;;;;;10.90;8.80;;;;;;;;;;5068720;28;20207;-60
2022/11/04 08:15:19;;;;;;;12.33;8.33;;;;;;;;;;5069991;28;20168;-61
2022/11/04 08:17:45;;;;;;;9.90;8.90;;;;;;;;;;5071096;28;21051;-61
2022/11/04 08:20:10;;;;;;;10.13;8.17;;;;;;;;;;5070924;28;20177;-64
2022/11/04 08:22:36;;;;;;;11.50;8.73;;;;;;;;;;5069461;28;20232;-61
2022/11/04 08:25:01;;;;;;;9.80;8.80;;;;;;;;;;5070787;28;20194;-61
2022/11/04 08:27:26;;;;;;;11.27;8.57;;;;;;;;;;5070802;28;20281;-60
2022/11/04 08:29:51;;;;;;;10.40;9.00;;;;;;;;;;5071072;28;20194;-60
2022/11/04 08:32:17;;;;;;;11.30;8.43;;;;;;;;;;5071124;28;20175;-61
2022/11/04 08:34:42;;;;;;;11.93;9.10;;;;;;;;;;5068710;28;20187;-59
2022/11/04 08:37:07;;;;;;;12.10;8.50;;;;;;;;;;5071145;28;20167;-60
2022/11/04 08:39:33;;;;;;;10.10;8.60;;;;;;;;;;5070710;28;20232;-59
2022/11/04 08:41:58;;;;;;;10.10;8.20;;;;;;;;;;5070838;28;20214;-59
2022/11/04 08:44:23;;;;;;;10.07;8.03;;;;;;;;;;5070594;28;20199;-60
2022/11/04 08:46:48;;;;;;;10.33;7.87;;;;;;;;;;5069379;28;20234;-59
2022/11/04 08:49:13;;;;;;;8.60;7.80;;;;;;;;;;5070819;28;20174;-61
2022/11/04 08:51:40;;;;;;;8.70;8.00;;;;;;;;;;5070658;28;20595;-61
2022/11/04 08:54:06;;;;;;;9.73;8.23;;;;;;;;;;5070615;28;20301;-59
2022/11/04 08:56:32;;;;;;;9.40;8.60;;;;;;;;;;5069058;28;20675;-60
2022/11/04 08:58:58;;;;;;;8.57;7.77;;;;;;;;;;5070811;28;20633;-60
2022/11/04 09:01:24;;;;;;;9.73;8.20;;;;;;;;;;5070890;28;20570;-60
2022/11/04 09:03:50;;;;;;;9.73;8.10;;;;;;;;;;5069938;28;20595;-61
2022/11/04 09:06:18;;;;;;;10.50;8.73;;;;;;;;;;5070021;28;20280;-61
2022/11/04 09:08:43;;;;;;;9.97;8.17;;;;;;;;;;5070595;28;20168;-59
2022/11/04 09:11:10;;;;;;;8.87;8.07;;;;;;;;;;5070457;28;20600;-61
2022/11/04 09:13:36;;;;;;;9.37;8.17;;;;;;;;;;5070384;28;20174;-60
2022/11/04 09:16:01;;;;;;;8.73;7.80;;;;;;;;;;5070358;28;20684;-62
2022/11/04 09:18:26;;;;;;;9.10;8.20;;;;;;;;;;5070321;28;20180;-61
2022/11/04 09:20:51;;;;;;;8.47;7.60;;;;;;;;;;5070453;28;20234;-59
2022/11/04 09:23:16;;;;;;;9.23;8.37;;;;;;;;;;5070327;28;20199;-61
2022/11/04 09:25:42;;;;;;;8.57;7.57;;;;;;;;;;5070226;28;20205;-62
2022/11/04 09:28:07;;;;;;;9.70;8.70;;;;;;;;;;5069890;28;20229;-61
2022/11/04 09:30:32;;;;;;;7.80;7.10;;;;;;;;;;5070476;28;20255;-61
2022/11/04 09:32:58;;;;;;;8.10;7.30;;;;;;;;;;5070102;28;20250;-60
2022/11/04 09:35:23;;;;;;;8.43;7.73;;;;;;;;;;5070406;28;20634;-60
2022/11/04 09:37:49;;;;;;;8.07;7.37;;;;;;;;;;5068748;28;20182;-60
2022/11/04 09:40:15;;;;;;;8.30;7.50;;;;;;;;;;5069079;28;20175;-60
2022/11/04 09:42:44;;;;;;;8.10;7.40;;;;;;;;;;5070096;28;20680;-60
2022/11/04 09:45:14;;;;;;;11.83;8.30;;;;;;;;;;5069900;28;20661;-60
2022/11/04 09:47:41;;;;;;;10.63;7.63;;;;;;;;;;5069755;28;20948;-58
2022/11/04 09:50:10;;;;;;;8.90;8.10;;;;;;;;;;5068897;28;20617;-60
2022/11/04 09:52:43;;;;;;;8.33;7.63;;;;;;;;;;5070079;28;20605;-60
2022/11/04 09:55:08;;;;;;;8.43;7.63;;;;;;;;;;5073653;28;20634;-60
2022/11/04 09:57:33;;;;;;;8.23;7.53;;;;;;;;;;5073522;28;20627;-60
2022/11/04 09:59:59;;;;;;;9.10;8.30;;;;;;;;;;5073332;28;20194;-60
2022/11/04 10:02:33;;;;;;;8.10;7.50;;;;;;;;;;5073653;28;20191;-60
2022/11/04 10:05:02;;;;;;;8.63;7.77;;;;;;;;;;5073528;28;20181;-58
2022/11/04 10:07:46;;;;;;;8.80;8.00;;;;;;;;;;5073161;28;20644;-59
2022/11/04 10:10:19;;;;;;;7.87;7.20;;;;;;;;;;5072125;28;20627;-59
2022/11/04 10:13:04;;;;;;;9.07;7.80;;;;;;;;;;5073026;28;21043;-59
2022/11/04 10:15:38;;;;;;;8.33;7.73;;;;;;;;;;5073409;28;20581;-60
2022/11/04 10:18:06;;;;;;;7.87;7.17;;;;;;;;;;5073434;28;20668;-60
2022/11/04 10:20:31;;;;;;;8.40;7.60;;;;;;;;;;5071820;28;20632;-60
2022/11/04 10:23:00;;;;;;;8.77;7.88;;;;;;;;;;5072944;28;20593;-59
2022/11/04 10:25:45;;;;;;;7.50;6.87;;;;;;;;;;5073127;28;20222;-60
2022/11/04 10:28:13;;;;;;;8.40;7.57;;;;;;;;;;5072816;28;21103;-60
2022/11/04 10:30:39;;;;;;;9.17;8.37;;;;;;;;;;5071626;28;21171;-61
2022/11/04 10:33:10;;;;;;;7.60;6.90;;;;;;;;;;5073226;28;20938;-60
2022/11/04 10:35:47;;;;;;;8.40;7.70;;;;;;;;;;5072876;28;20588;-60
2022/11/04 10:38:17;;;;;;;7.93;7.33;;;;;;;;;;5071053;28;21138;-60
2022/11/04 10:40:44;;;;;;;8.37;7.63;;;;;;;;;;5071204;28;20967;-60
2022/11/04 10:43:12;;;;;;;7.70;7.10;;;;;;;;;;5072877;28;20612;-60
2022/11/04 10:46:02;;;;;;;8.50;7.80;;;;;;;;;;5072495;28;20649;-60
2022/11/04 10:48:31;;;;;;;7.90;7.27;;;;;;;;;;5071389;28;20618;-61
2022/11/04 10:50:57;;;;;;;7.83;7.23;;;;;;;;;;5072419;28;20585;-61
2022/11/04 10:53:29;;;;;;;7.73;7.13;;;;;;;;;;5072684;28;20547;-61
2022/11/04 10:56:27;;;;;;;7.43;6.80;;;;;;;;;;5072501;28;20573;-60
2022/11/04 10:58:54;;;;;;;8.57;7.83;;;;;;;;;;5032532;28;20627;-59
2022/11/04 11:01:27;;;;;;;7.27;6.60;;;;;;;;;;5052456;28;21473;-59
2022/11/04 11:03:53;;;;;;;7.60;6.93;;;;;;;;;;5052243;28;20584;-59
2022/11/04 11:06:18;;;;;;;8.80;8.10;;;;;;;;;;5052544;28;20638;-59
2022/11/04 11:08:43;;;;;;;7.90;7.30;;;;;;;;;;5049751;28;20652;-60
2022/11/04 11:11:09;;;;;;;8.20;7.40;;;;;;;;;;5071935;28;20193;-59
2022/11/04 11:13:36;;;;;;;7.60;7.00;;;;;;;;;;5072283;28;20163;-60
2022/11/04 11:16:06;;;;;;;7.33;6.73;;;;;;;;;;5071748;28;20182;-59
2022/11/04 11:18:31;;;;;;;8.13;7.40;;;;;;;;;;5072334;28;20582;-59
2022/11/04 11:21:07;;;;;;;8.07;7.47;;;;;;;;;;5070145;28;21196;-59
2022/11/04 11:23:38;;;;;;;7.60;7.00;;;;;;;;;;5072141;28;20198;-59
2022/11/04 11:26:06;;;;;;;8.50;7.80;;;;;;;;;;5071756;28;20633;-59
2022/11/04 11:28:36;;;;;;;7.87;7.27;;;;;;;;;;5071675;28;20577;-60
2022/11/04 11:31:06;;;;;;;8.17;7.57;;;;;;;;;;5071647;28;20662;-60
2022/11/04 11:33:33;;;;;;;7.50;6.93;;;;;;;;;;5071788;28;20589;-59
2022/11/04 11:36:03;;;;;;;7.40;6.80;;;;;;;;;;5071280;28;20581;-61
2022/11/04 11:38:30;;;;;;;7.90;7.20;;;;;;;;;;5071695;28;20574;-60
2022/11/04 11:41:04;;;;;;;7.87;7.17;;;;;;;;;;5069987;28;20621;-59
2022/11/04 11:43:30;;;;;;;8.20;7.50;;;;;;;;;;5071548;28;20590;-60
2022/11/04 11:45:58;;;;;;;7.30;6.70;;;;;;;;;;5071220;28;20653;-59
2022/11/04 11:48:27;;;;;;;7.60;7.10;;;;;;;;;;5071334;28;20639;-59
2022/11/04 11:50:56;;;;;;;8.00;7.40;;;;;;;;;;5070845;28;21115;-60
2022/11/04 11:53:24;;;;;;;7.40;6.90;;;;;;;;;;5070507;28;20625;-59
2022/11/04 11:55:54;;;;;;;6.93;6.43;;;;;;;;;;5071024;28;20611;-59
2022/11/04 11:58:28;;;;;;;7.53;7.00;;;;;;;;;;5071012;28;20578;-59
2022/11/04 12:00:56;;;;;;;7.27;6.67;;;;;;;;;;5071068;28;20688;-60
2022/11/04 12:03:40;;;;;;;7.60;7.00;;;;;;;;;;5069691;28;20700;-58
2022/11/04 12:06:25;;;;;;;8.00;7.40;;;;;;;;;;5070960;28;20641;-59
2022/11/04 12:09:00;;;;;;;6.47;5.97;;;;;;;;;;5070918;28;20573;-60
2022/11/04 12:12:04;;;;;;;7.50;6.90;;;;;;;;;;5070199;28;20782;-60
2022/11/04 12:14:47;;;;;;;7.00;6.40;;;;;;;;;;5008851;28;20596;-59
2022/11/04 12:17:29;;;;;;;7.80;7.20;;;;;;;;;;5008452;28;20598;-59
2022/11/04 12:20:04;;;;;;;7.30;6.70;;;;;;;;;;5051776;28;20628;-60
2022/11/04 12:22:32;;;;;;;7.20;6.70;;;;;;;;;;5070702;28;20997;-58
2022/11/04 12:25:26;;;;;;;6.37;5.97;;;;;;;;;;5070728;28;21013;-59
2022/11/04 12:28:14;;;;;;;7.03;6.53;;;;;;;;;;5055473;28;20644;-60
2022/11/04 12:30:49;;;;;;;7.10;6.50;;;;;;;;;;5031073;28;21238;-60
2022/11/04 12:33:20;;;;;;;7.10;6.60;;;;;;;;;;5050866;28;20608;-59
2022/11/04 12:35:56;;;;;;;7.00;6.50;;;;;;;;;;5050817;28;20574;-60
2022/11/04 12:38:39;;;;;;;7.53;6.93;;;;;;;;;;5061837;28;20613;-60
2022/11/04 12:41:11;;;;;;;7.07;6.57;;;;;;;;;;5070758;28;20635;-60
2022/11/04 12:43:55;;;;;;;7.17;6.67;;;;;;;;;;5070591;28;21108;-60
2022/11/04 12:46:27;;;;;;;7.40;6.80;;;;;;;;;;5070578;28;20624;-59
2022/11/04 12:49:02;;;;;;;6.60;6.10;;;;;;;;;;5068541;28;20686;-60
2022/11/04 12:51:36;;;;;;;7.20;6.70;;;;;;;;;;5070629;28;20668;-60
2022/11/04 12:54:20;;;;;;;6.70;6.20;;;;;;;;;;5070469;28;20654;-59
2022/11/04 12:56:48;;;;;;;7.10;6.60;;;;;;;;;;5070632;28;20578;-59
2022/11/04 12:59:25;;;;;;;7.20;6.60;;;;;;;;;;5069756;28;21186;-60
2022/11/04 13:01:50;;;;;;;6.90;6.37;;;;;;;;;;5070419;28;21134;-60
2022/11/04 13:04:19;;;;;;;6.50;6.00;;;;;;;;;;5070547;28;20582;-61
2022/11/04 13:06:44;;;;;;;6.93;6.40;;;;;;;;;;5070687;28;20195;-61
2022/11/04 13:09:12;;;;;;;6.75;6.25;;;;;;;;;;5069120;28;21022;-58
2022/11/04 13:11:42;;;;;;;6.60;6.00;;;;;;;;;;5070091;28;20189;-59
2022/11/04 13:14:20;;;;;;;8.90;6.53;;;;;;;;;;5070151;28;20677;-63
2022/11/04 13:16:48;;;;;;;7.53;6.83;;;;;;;;;;5069949;28;20600;-60
2022/11/04 13:19:24;;;;;;;6.80;6.20;;;;;;;;;;5082337;28;20588;-61
2022/11/04 13:21:53;;;;;;;6.60;6.00;;;;;;;;;;5079085;28;21134;-62
2022/11/04 13:24:30;;;;;;;6.73;6.13;;;;;;;;;;5069375;28;20651;-61
2022/11/04 13:26:58;;;;;;;7.13;6.43;;;;;;;;;;5067628;28;21229;-61
2022/11/04 13:29:37;;;;;;;6.50;6.00;;;;;;;;;;5072023;28;20600;-60
2022/11/04 13:32:05;;;;;;;5.93;5.53;;;;;;;;;;5073963;28;20620;-59
2022/11/04 13:34:42;;;;;;;7.00;6.40;;;;;;;;;;5071426;28;20629;-61
2022/11/04 13:37:10;;;;;;;5.80;5.37;;;;;;;;;;5074190;28;20589;-62
2022/11/04 13:39:45;;;;;;;6.60;6.00;;;;;;;;;;5071361;28;21081;-60
2022/11/04 13:42:16;;;;;;;6.60;6.00;;;;;;;;;;5073646;28;21018;-60
2022/11/04 13:44:43;;;;;;;6.50;5.90;;;;;;;;;;5073931;28;20589;-61
2022/11/04 13:47:17;;;;;;;6.80;6.30;;;;;;;;;;5071257;28;20631;-62
2022/11/04 13:49:47;;;;;;;6.70;6.10;;;;;;;;;;5070682;28;21040;-62
2022/11/04 13:52:13;;;;;;;6.63;6.10;;;;;;;;;;5071816;28;21059;-63
2022/11/04 13:54:52;;;;;;;5.90;5.03;;;;;;;;;;5068201;28;20608;-63
2022/11/04 13:57:19;;;;;;;6.67;6.17;;;;;;;;;;5066243;28;20695;-64
2022/11/04 14:00:03;;;;;;;6.07;5.57;;;;;;;;;;5068656;28;20584;-65
2022/11/04 14:02:40;;;;;;;16.20;6.90;;;;;;;;;;5068137;28;20615;-68
2022/11/04 14:05:26;;;;;;;10.77;6.70;;;;;;;;;;5063393;28;20590;-72
2022/11/04 14:08:00;;;;;;;8.57;6.03;;;;;;;;;;5036888;28;21459;-69
2022/11/04 14:10:37;;;;;;;9.60;6.00;;;;;;;;;;5067656;28;21166;-68
2022/11/04 14:13:41;;;;;;;9.20;6.53;;;;;;;;;;5055182;28;20645;-71
2022/11/04 14:16:10;;;;;;;11.17;5.63;;;;;;;;;;5026192;28;20703;-73
2022/11/04 14:18:36;;;;;;;11.53;5.90;;;;;;;;;;5062027;28;20890;-70
2022/11/04 14:21:04;;;;;;;9.17;6.50;;;;;;;;;;5066695;28;21010;-72
2022/11/04 14:23:29;;;;;;;12.90;6.87;;;;;;;;;;5067141;28;21139;-72
2022/11/04 14:25:59;;;;;;;8.77;5.97;;;;;;;;;;5061742;28;20656;-70
2022/11/04 14:28:28;;;;;;;8.17;5.40;;;;;;;;;;5066449;28;20240;-72
2022/11/04 14:30:55;;;;;;;7.83;5.60;;;;;;;;;;5068637;28;20640;-72
2022/11/04 14:33:38;;;;;;;20.43;5.90;;;;;;;;;;5068137;28;20607;-71
2022/11/04 14:36:15;;;;;;;5.83;5.13;;;;;;;;;;5062835;28;20620;-72
2022/11/04 14:38:41;;;;;;;6.60;5.87;;;;;;;;;;5055362;28;20961;-73
2022/11/04 14:41:25;;;;;;;10.37;5.70;;;;;;;;;;5069129;28;20636;-71
2022/11/04 14:43:52;;;;;;;10.37;5.57;;;;;;;;;;5066974;28;20182;-72
2022/11/04 14:46:18;;;;;;;6.57;5.37;;;;;;;;;;5068275;28;20661;-73
2022/11/04 14:48:50;;;;;;;11.07;5.83;;;;;;;;;;5067111;28;20652;-69
2022/11/04 14:51:26;;;;;;;14.90;5.60;;;;;;;;;;5066243;28;20647;-76
2022/11/04 14:53:54;;;;;;;10.43;5.93;;;;;;;;;;5064884;28;21396;-77
2022/11/04 14:56:20;;;;;;;6.40;5.35;;;;;;;;;;5071013;28;20718;-55
2022/11/04 14:59:04;;;;;;;7.53;4.77;;;;;;;;;;5068396;28;20252;-56
2022/11/04 15:01:31;;;;;;;5.40;4.90;;;;;;;;;;5068639;28;20642;-56
2022/11/04 15:04:03;;;;;;;8.93;5.93;;;;;;;;;;5068708;28;20585;-56
2022/11/04 15:06:28;;;;;;;6.23;4.83;;;;;;;;;;5064174;28;20657;-59
2022/11/04 15:08:54;;;;;;;11.23;5.70;;;;;;;;;;5060989;28;20597;-59
2022/11/04 15:12:49;;;;;;;21.13;6.53;;;;;;;;;;5068502;28;20516;-59
2022/11/04 15:14:25;;;;;;;13.47;5.97;;;;;;;;;;5057242;28;20262;-57
2022/11/04 15:16:55;;;;;;;14.35;5.70;;;;;;;;;;5048621;28;20746;-56
2022/11/04 15:19:31;;;;;;;7.70;5.10;;;;;;;;;;5059358;28;20613;-57
2022/11/04 15:21:57;;;;;;;12.93;5.70;;;;;;;;;;5060626;28;20598;-56